createdAt,value
2017-01-11T00:00:07.442Z,0
2017-01-11T00:01:18.118Z,0
2017-01-11T00:02:28.845Z,0
2017-01-11T00:03:39.541Z,0
2017-01-11T00:04:50.277Z,0
2017-01-11T00:06:00.971Z,0
2017-01-11T00:07:11.706Z,0
2017-01-11T00:08:22.423Z,0
2017-01-11T00:09:33.120Z,0
2017-01-11T00:10:43.882Z,0
2017-01-11T00:11:54.589Z,0
2017-01-11T00:13:05.309Z,0
2017-01-11T00:14:16.045Z,0
2017-01-11T00:15:26.751Z,0
2017-01-11T00:16:37.462Z,0
2017-01-11T00:17:48.195Z,0
2017-01-11T00:18:58.940Z,0
2017-01-11T00:20:10.034Z,0
2017-01-11T00:21:20.750Z,0
2017-01-11T00:22:31.492Z,0
2017-01-11T00:23:42.235Z,0
2017-01-11T00:24:52.930Z,0
2017-01-11T00:26:03.634Z,0
2017-01-11T00:27:14.347Z,0
2017-01-11T00:28:25.052Z,0
2017-01-11T00:29:35.793Z,0
2017-01-11T00:30:46.498Z,0
2017-01-11T00:31:57.207Z,0
2017-01-11T00:33:07.938Z,0
2017-01-11T00:34:18.652Z,0
2017-01-11T00:35:29.382Z,0
2017-01-11T00:36:40.098Z,0
2017-01-11T00:37:50.810Z,0
2017-01-11T00:39:01.517Z,0
2017-01-11T00:40:12.217Z,0
2017-01-11T00:41:22.931Z,0
2017-01-11T00:42:33.647Z,0
2017-01-11T00:43:44.353Z,0
2017-01-11T00:44:55.089Z,0
2017-01-11T00:46:05.819Z,0
2017-01-11T00:47:16.535Z,0
2017-01-11T00:48:27.627Z,0
2017-01-11T00:49:38.735Z,0
2017-01-11T00:50:49.459Z,0
2017-01-11T00:52:00.145Z,0
2017-01-11T00:53:10.870Z,0
2017-01-11T00:54:21.584Z,0
2017-01-11T00:55:32.299Z,0
2017-01-11T00:56:43.021Z,0
2017-01-11T00:57:53.746Z,0
2017-01-11T00:59:04.471Z,0
2017-01-11T01:00:15.188Z,0
2017-01-11T01:01:25.934Z,0
2017-01-11T01:02:36.654Z,0
2017-01-11T01:03:47.363Z,0
2017-01-11T01:04:58.077Z,0
2017-01-11T01:06:08.793Z,0
2017-01-11T01:07:19.497Z,0
2017-01-11T01:08:30.565Z,0
2017-01-11T01:09:41.303Z,0
2017-01-11T01:10:52.028Z,0
2017-01-11T01:12:02.728Z,0
2017-01-11T01:13:13.424Z,0
2017-01-11T01:14:24.166Z,0
2017-01-11T01:15:34.869Z,0
2017-01-11T01:16:45.613Z,0
2017-01-11T01:17:56.325Z,0
2017-01-11T01:19:07.078Z,0
2017-01-11T01:20:17.780Z,0
2017-01-11T01:21:28.481Z,0
2017-01-11T01:22:39.195Z,0
2017-01-11T01:23:49.918Z,0
2017-01-11T01:25:00.651Z,0
2017-01-11T01:26:11.388Z,0
2017-01-11T01:27:22.122Z,0
2017-01-11T01:28:32.841Z,0
2017-01-11T01:29:43.546Z,0
2017-01-11T01:30:54.239Z,0
2017-01-11T01:32:05.377Z,0
2017-01-11T01:33:16.087Z,0
2017-01-11T01:34:26.827Z,0
2017-01-11T01:35:37.558Z,0
2017-01-11T01:36:48.298Z,0
2017-01-11T01:37:59.018Z,0
2017-01-11T01:39:09.718Z,0
2017-01-11T01:40:20.411Z,0
2017-01-11T01:41:31.109Z,0
2017-01-11T01:42:41.805Z,0
2017-01-11T01:43:52.525Z,0
2017-01-11T01:45:03.259Z,0
2017-01-11T01:46:13.971Z,0
2017-01-11T01:47:24.683Z,0
2017-01-11T01:48:35.400Z,0
2017-01-11T01:49:46.125Z,0
2017-01-11T01:50:56.838Z,0
2017-01-11T01:52:07.567Z,0
2017-01-11T01:53:18.293Z,0
2017-01-11T01:54:29.012Z,0
2017-01-11T01:55:39.751Z,0
2017-01-11T01:56:50.501Z,0
2017-01-11T01:58:01.222Z,0
2017-01-11T01:59:11.924Z,0
2017-01-11T02:00:22.656Z,0
2017-01-11T02:01:33.368Z,0
2017-01-11T02:02:44.072Z,0
2017-01-11T02:03:54.776Z,0
2017-01-11T02:05:05.517Z,0
2017-01-11T02:06:16.247Z,0
2017-01-11T02:07:26.964Z,0
2017-01-11T02:08:37.677Z,0
2017-01-11T02:09:48.380Z,0
2017-01-11T02:10:59.107Z,0
2017-01-11T02:12:09.825Z,0
2017-01-11T02:13:20.542Z,0
2017-01-11T02:14:31.241Z,0
2017-01-11T02:15:41.962Z,0
2017-01-11T02:16:52.689Z,0
2017-01-11T02:18:03.425Z,0
2017-01-11T02:19:14.142Z,0
2017-01-11T02:20:24.851Z,0
2017-01-11T02:21:35.568Z,0
2017-01-11T02:22:46.290Z,0
2017-01-11T02:23:56.986Z,0
2017-01-11T02:25:07.721Z,0
2017-01-11T02:26:18.425Z,0
2017-01-11T02:27:29.142Z,0
2017-01-11T02:28:39.892Z,0
2017-01-11T02:29:50.586Z,0
2017-01-11T02:31:01.311Z,0
2017-01-11T02:32:12.047Z,0
2017-01-11T02:33:22.763Z,0
2017-01-11T02:34:33.469Z,0
2017-01-11T02:35:44.165Z,0
2017-01-11T02:36:54.883Z,0
2017-01-11T02:38:05.599Z,0
2017-01-11T02:39:16.304Z,0
2017-01-11T02:40:27.013Z,0
2017-01-11T02:41:37.722Z,0
2017-01-11T02:42:48.417Z,0
2017-01-11T02:43:59.162Z,0
2017-01-11T02:45:09.887Z,0
2017-01-11T02:46:20.656Z,0
2017-01-11T02:47:31.376Z,0
2017-01-11T02:48:42.071Z,0
2017-01-11T02:49:52.792Z,0
2017-01-11T02:51:03.526Z,0
2017-01-11T02:52:14.232Z,0
2017-01-11T02:53:24.968Z,0
2017-01-11T02:54:35.689Z,0
2017-01-11T02:55:46.415Z,0
2017-01-11T02:56:57.141Z,0
2017-01-11T02:58:07.856Z,0
2017-01-11T02:59:18.584Z,0
2017-01-11T03:00:29.307Z,0
2017-01-11T03:01:40.044Z,0
2017-01-11T03:02:50.748Z,0
2017-01-11T03:04:01.472Z,0
2017-01-11T03:05:12.204Z,0
2017-01-11T03:06:22.915Z,0
2017-01-11T03:07:33.646Z,0
2017-01-11T03:08:44.371Z,0
2017-01-11T03:09:55.075Z,0
2017-01-11T03:11:05.796Z,0
2017-01-11T03:12:16.513Z,0
2017-01-11T03:13:27.211Z,0
2017-01-11T03:14:37.925Z,0
2017-01-11T03:15:48.626Z,0
2017-01-11T03:16:59.331Z,0
2017-01-11T03:18:10.060Z,0
2017-01-11T03:19:20.793Z,0
2017-01-11T03:20:31.507Z,0
2017-01-11T03:21:42.231Z,0
2017-01-11T03:22:52.949Z,0
2017-01-11T03:24:03.666Z,0
2017-01-11T03:25:14.397Z,0
2017-01-11T03:26:25.113Z,0
2017-01-11T03:27:35.837Z,0
2017-01-11T03:28:46.562Z,0
2017-01-11T03:29:57.259Z,0
2017-01-11T03:31:07.996Z,0
2017-01-11T03:32:18.714Z,0
2017-01-11T03:33:29.421Z,0
2017-01-11T03:34:40.156Z,0
2017-01-11T03:35:50.881Z,0
2017-01-11T03:37:01.599Z,0
2017-01-11T03:38:12.332Z,0
2017-01-11T03:39:23.049Z,0
2017-01-11T03:40:33.762Z,0
2017-01-11T03:41:44.486Z,0
2017-01-11T03:42:55.207Z,0
2017-01-11T03:44:05.915Z,0
2017-01-11T03:45:16.650Z,0
2017-01-11T03:46:27.350Z,0
2017-01-11T03:47:38.114Z,0
2017-01-11T03:48:48.818Z,0
2017-01-11T03:49:59.521Z,0
2017-01-11T03:51:10.242Z,0
2017-01-11T03:52:20.959Z,0
2017-01-11T03:53:31.710Z,0
2017-01-11T03:54:42.440Z,0
2017-01-11T03:55:53.165Z,0
2017-01-11T03:57:03.886Z,0
2017-01-11T03:58:14.603Z,0
2017-01-11T03:59:25.332Z,0
2017-01-11T04:00:36.046Z,0
2017-01-11T04:01:46.754Z,0
2017-01-11T04:02:57.463Z,0
2017-01-11T04:04:08.209Z,0
2017-01-11T04:05:18.916Z,0
2017-01-11T04:06:29.639Z,0
2017-01-11T04:07:40.397Z,0
2017-01-11T04:08:51.106Z,0
2017-01-11T04:10:01.807Z,0
2017-01-11T04:11:12.498Z,0
2017-01-11T04:12:23.194Z,0
2017-01-11T04:13:33.911Z,0
2017-01-11T04:14:44.640Z,0
2017-01-11T04:15:55.353Z,0
2017-01-11T04:17:06.077Z,0
2017-01-11T04:18:16.798Z,0
2017-01-11T04:19:27.520Z,0
2017-01-11T04:20:38.254Z,0
2017-01-11T04:21:48.979Z,0
2017-01-11T04:22:59.697Z,0
2017-01-11T04:24:10.426Z,0
2017-01-11T04:25:21.168Z,0
2017-01-11T04:26:31.889Z,0
2017-01-11T04:27:42.631Z,0
2017-01-11T04:28:53.335Z,0
2017-01-11T04:30:04.052Z,0
2017-01-11T04:31:14.773Z,0
2017-01-11T04:32:25.480Z,0
2017-01-11T04:33:36.196Z,0
2017-01-11T04:34:46.900Z,0
2017-01-11T04:35:57.629Z,0
2017-01-11T04:37:08.354Z,0
2017-01-11T04:38:19.087Z,0
2017-01-11T04:39:29.820Z,0
2017-01-11T04:40:40.542Z,0
2017-01-11T04:41:51.646Z,0
2017-01-11T04:43:02.366Z,0
2017-01-11T04:44:13.064Z,0
2017-01-11T04:45:23.772Z,0
2017-01-11T04:46:34.498Z,0
2017-01-11T04:47:45.225Z,0
2017-01-11T04:48:55.940Z,0
2017-01-11T04:50:06.657Z,0
2017-01-11T04:51:17.386Z,0
2017-01-11T04:52:28.099Z,0
2017-01-11T04:53:38.824Z,0
2017-01-11T04:54:49.573Z,0
2017-01-11T04:56:00.274Z,0
2017-01-11T04:57:10.965Z,0
2017-01-11T04:58:21.708Z,0
2017-01-11T04:59:32.435Z,0
2017-01-11T05:00:43.147Z,0
2017-01-11T05:01:53.853Z,0
2017-01-11T05:03:04.571Z,0
2017-01-11T05:04:15.285Z,0
2017-01-11T05:05:25.962Z,0
2017-01-11T05:06:36.662Z,0
2017-01-11T05:07:47.380Z,0
2017-01-11T05:08:58.084Z,0
2017-01-11T05:10:08.818Z,0
2017-01-11T05:11:19.517Z,0
2017-01-11T05:12:30.235Z,0
2017-01-11T05:13:40.980Z,0
2017-01-11T05:14:51.685Z,0
2017-01-11T05:16:02.407Z,0
2017-01-11T05:17:13.173Z,0
2017-01-11T05:18:23.873Z,0
2017-01-11T05:19:34.595Z,0
2017-01-11T05:20:45.328Z,0
2017-01-11T05:21:56.056Z,0
2017-01-11T05:23:07.154Z,0
2017-01-11T05:24:17.853Z,0
2017-01-11T05:25:28.569Z,0
2017-01-11T05:26:39.290Z,0
2017-01-11T05:27:50.015Z,0
2017-01-11T05:29:00.733Z,0
2017-01-11T05:30:11.446Z,0
2017-01-11T05:31:22.149Z,0
2017-01-11T05:32:32.868Z,0
2017-01-11T05:33:43.592Z,0
2017-01-11T05:34:54.294Z,0
2017-01-11T05:36:05.026Z,0
2017-01-11T05:37:16.110Z,0
2017-01-11T05:38:26.843Z,0
2017-01-11T05:39:37.571Z,0
2017-01-11T05:40:48.269Z,0
2017-01-11T05:41:58.980Z,0
2017-01-11T05:43:09.702Z,0
2017-01-11T05:44:20.406Z,0
2017-01-11T05:45:31.100Z,0
2017-01-11T05:46:41.815Z,0
2017-01-11T05:47:52.535Z,0
2017-01-11T05:49:03.283Z,0
2017-01-11T05:50:14.012Z,0
2017-01-11T05:51:24.734Z,0
2017-01-11T05:52:35.472Z,0
2017-01-11T05:53:46.190Z,0
2017-01-11T05:54:56.897Z,0
2017-01-11T05:56:07.635Z,0
2017-01-11T05:57:18.380Z,0
2017-01-11T05:58:29.084Z,0
2017-01-11T05:59:39.822Z,0
2017-01-11T06:00:50.526Z,0
2017-01-11T06:02:01.220Z,0
2017-01-11T06:03:11.914Z,0
2017-01-11T06:04:22.619Z,0
2017-01-11T06:05:33.360Z,0
2017-01-11T06:06:44.095Z,0
2017-01-11T06:07:54.798Z,0
2017-01-11T06:09:05.494Z,0
2017-01-11T06:10:16.235Z,0
2017-01-11T06:11:26.962Z,0
2017-01-11T06:12:37.674Z,0
2017-01-11T06:13:48.386Z,0
2017-01-11T06:14:59.145Z,0
2017-01-11T06:16:09.895Z,0
2017-01-11T06:17:20.624Z,0
2017-01-11T06:18:31.337Z,0
2017-01-11T06:19:42.062Z,0
2017-01-11T06:20:52.771Z,0
2017-01-11T06:22:03.521Z,0
2017-01-11T06:23:14.249Z,0
2017-01-11T06:24:24.971Z,0
2017-01-11T06:25:35.690Z,0
2017-01-11T06:26:46.417Z,0
2017-01-11T06:27:57.172Z,0
2017-01-11T06:29:07.878Z,0
2017-01-11T06:30:18.601Z,0
2017-01-11T06:31:29.346Z,0
2017-01-11T06:32:40.068Z,0
2017-01-11T06:33:50.784Z,0
2017-01-11T06:35:01.497Z,0
2017-01-11T06:36:12.243Z,0
2017-01-11T06:37:22.952Z,0
2017-01-11T06:38:33.678Z,0
2017-01-11T06:39:44.367Z,0
2017-01-11T06:40:55.089Z,0
2017-01-11T06:42:05.799Z,0
2017-01-11T06:43:16.510Z,0
2017-01-11T06:44:27.223Z,0
2017-01-11T06:45:37.946Z,0
2017-01-11T06:46:48.673Z,0
2017-01-11T06:47:59.387Z,0
2017-01-11T06:49:10.126Z,0
2017-01-11T06:50:20.853Z,0
2017-01-11T06:51:31.548Z,0
2017-01-11T06:52:42.247Z,0
2017-01-11T06:53:52.968Z,0
2017-01-11T06:55:03.678Z,0
2017-01-11T06:56:14.433Z,0
2017-01-11T06:57:25.173Z,0
2017-01-11T06:58:35.881Z,0
2017-01-11T06:59:46.612Z,0
2017-01-11T07:00:57.337Z,0
2017-01-11T07:02:08.054Z,0
2017-01-11T07:03:18.803Z,0
2017-01-11T07:04:29.908Z,0
2017-01-11T07:05:40.620Z,0
2017-01-11T07:06:51.320Z,5
2017-01-11T07:08:01.998Z,5
2017-01-11T07:09:12.729Z,5
2017-01-11T07:10:23.462Z,5
2017-01-11T07:11:34.157Z,5
2017-01-11T07:12:44.841Z,5
2017-01-11T07:13:55.548Z,5
2017-01-11T07:15:06.284Z,10
2017-01-11T07:16:17.005Z,10
2017-01-11T07:17:27.708Z,10
2017-01-11T07:18:38.433Z,10
2017-01-11T07:19:49.153Z,10
2017-01-11T07:20:59.870Z,10
2017-01-11T07:22:10.592Z,10
2017-01-11T07:23:21.296Z,15
2017-01-11T07:24:32.010Z,15
2017-01-11T07:25:43.085Z,15
2017-01-11T07:26:53.822Z,15
2017-01-11T07:28:04.553Z,20
2017-01-11T07:29:15.293Z,20
2017-01-11T07:30:26.018Z,20
2017-01-11T07:31:36.728Z,25
2017-01-11T07:32:47.434Z,25
2017-01-11T07:33:58.148Z,25
2017-01-11T07:35:08.894Z,25
2017-01-11T07:36:19.615Z,25
2017-01-11T07:37:30.321Z,30
2017-01-11T07:38:41.015Z,30
2017-01-11T07:39:51.736Z,30
2017-01-11T07:41:02.453Z,30
2017-01-11T07:42:13.169Z,35
2017-01-11T07:43:23.887Z,40
2017-01-11T07:44:34.608Z,40
2017-01-11T07:45:45.329Z,40
2017-01-11T07:46:56.039Z,40
2017-01-11T07:48:06.759Z,40
2017-01-11T07:49:17.492Z,45
2017-01-11T07:50:28.241Z,50
2017-01-11T07:51:38.943Z,50
2017-01-11T07:52:49.664Z,55
2017-01-11T07:54:00.383Z,60
2017-01-11T07:55:11.126Z,60
2017-01-11T07:56:21.829Z,60
2017-01-11T07:57:32.547Z,60
2017-01-11T07:58:43.264Z,60
2017-01-11T07:59:53.982Z,60
2017-01-11T08:01:04.690Z,65
2017-01-11T08:02:15.401Z,70
2017-01-11T08:03:26.146Z,70
2017-01-11T08:04:36.822Z,70
2017-01-11T08:05:47.546Z,65
2017-01-11T08:06:58.245Z,65
2017-01-11T08:08:08.970Z,65
2017-01-11T08:09:19.682Z,60
2017-01-11T08:10:30.381Z,65
2017-01-11T08:11:41.104Z,65
2017-01-11T08:12:51.811Z,70
2017-01-11T08:14:02.543Z,75
2017-01-11T08:15:13.244Z,75
2017-01-11T08:16:23.962Z,80
2017-01-11T08:17:34.705Z,85
2017-01-11T08:18:45.417Z,85
2017-01-11T08:19:56.148Z,90
2017-01-11T08:21:06.859Z,95
2017-01-11T08:22:17.579Z,90
2017-01-11T08:23:28.304Z,90
2017-01-11T08:24:39.032Z,95
2017-01-11T08:25:50.133Z,95
2017-01-11T08:27:00.867Z,90
2017-01-11T08:28:11.571Z,100
2017-01-11T08:29:22.297Z,100
2017-01-11T08:30:33.027Z,90
2017-01-11T08:31:43.780Z,95
2017-01-11T08:32:54.476Z,100
2017-01-11T08:34:05.218Z,100
2017-01-11T08:35:15.964Z,100
2017-01-11T08:36:26.684Z,95
2017-01-11T08:37:37.387Z,95
2017-01-11T08:38:48.134Z,100
2017-01-11T08:39:58.860Z,105
2017-01-11T08:41:09.598Z,105
2017-01-11T08:42:20.300Z,100
2017-01-11T08:43:31.015Z,95
2017-01-11T08:44:41.756Z,95
2017-01-11T08:45:52.463Z,105
2017-01-11T08:47:03.182Z,115
2017-01-11T08:48:13.920Z,110
2017-01-11T08:49:24.663Z,125
2017-01-11T08:50:35.369Z,135
2017-01-11T08:51:46.066Z,130
2017-01-11T08:52:56.786Z,135
2017-01-11T08:54:07.504Z,130
2017-01-11T08:55:18.225Z,125
2017-01-11T08:56:28.939Z,130
2017-01-11T08:57:39.650Z,140
2017-01-11T08:58:50.388Z,145
2017-01-11T09:00:01.100Z,135
2017-01-11T09:01:11.823Z,145
2017-01-11T09:02:22.531Z,145
2017-01-11T09:03:33.264Z,140
2017-01-11T09:04:43.972Z,140
2017-01-11T09:05:54.689Z,155
2017-01-11T09:07:05.427Z,175
2017-01-11T09:08:16.174Z,185
2017-01-11T09:09:26.877Z,185
2017-01-11T09:10:37.601Z,200
2017-01-11T09:11:48.311Z,205
2017-01-11T09:12:59.019Z,195
2017-01-11T09:14:09.737Z,185
2017-01-11T09:15:20.453Z,190
2017-01-11T09:16:31.171Z,190
2017-01-11T09:17:41.876Z,215
2017-01-11T09:18:52.616Z,210
2017-01-11T09:20:03.350Z,195
2017-01-11T09:21:14.491Z,185
2017-01-11T09:22:25.188Z,180
2017-01-11T09:23:35.882Z,185
2017-01-11T09:24:46.600Z,190
2017-01-11T09:25:57.343Z,210
2017-01-11T09:27:08.044Z,230
2017-01-11T09:28:18.762Z,235
2017-01-11T09:29:29.480Z,240
2017-01-11T09:30:40.201Z,255
2017-01-11T09:31:50.922Z,265
2017-01-11T09:33:01.632Z,300
2017-01-11T09:34:12.361Z,325
2017-01-11T09:35:23.094Z,330
2017-01-11T09:36:33.791Z,380
2017-01-11T09:37:44.528Z,420
2017-01-11T09:38:55.231Z,465
2017-01-11T09:40:05.954Z,500
2017-01-11T09:41:16.673Z,525
2017-01-11T09:42:27.412Z,545
2017-01-11T09:43:38.129Z,545
2017-01-11T09:44:48.836Z,560
2017-01-11T09:45:59.528Z,560
2017-01-11T09:47:10.228Z,535
2017-01-11T09:48:20.941Z,505
2017-01-11T09:49:32.041Z,485
2017-01-11T09:50:42.771Z,500
2017-01-11T09:51:53.500Z,515
2017-01-11T09:53:04.184Z,505
2017-01-11T09:54:14.926Z,480
2017-01-11T09:55:25.668Z,455
2017-01-11T09:56:36.377Z,440
2017-01-11T09:57:47.090Z,420
2017-01-11T09:58:57.809Z,385
2017-01-11T10:00:08.527Z,365
2017-01-11T10:01:19.244Z,350
2017-01-11T10:02:29.950Z,345
2017-01-11T10:03:40.652Z,320
2017-01-11T10:04:51.386Z,305
2017-01-11T10:06:02.110Z,300
2017-01-11T10:07:12.829Z,300
2017-01-11T10:08:23.529Z,305
2017-01-11T10:09:34.241Z,330
2017-01-11T10:10:44.944Z,340
2017-01-11T10:11:55.683Z,350
2017-01-11T10:13:06.414Z,360
2017-01-11T10:14:17.149Z,365
2017-01-11T10:15:28.658Z,360
2017-01-11T10:16:39.373Z,345
2017-01-11T10:17:50.114Z,325
2017-01-11T10:19:00.840Z,320
2017-01-11T10:20:11.939Z,310
2017-01-11T10:21:22.675Z,295
2017-01-11T10:22:33.427Z,295
2017-01-11T10:23:44.131Z,310
2017-01-11T10:24:54.849Z,295
2017-01-11T10:26:05.565Z,300
2017-01-11T10:27:16.308Z,310
2017-01-11T10:28:27.032Z,315
2017-01-11T10:29:37.752Z,320
2017-01-11T10:30:48.495Z,310
2017-01-11T10:31:59.237Z,305
2017-01-11T10:33:09.940Z,315
2017-01-11T10:34:20.636Z,355
2017-01-11T10:35:31.363Z,380
2017-01-11T10:36:42.100Z,395
2017-01-11T10:37:52.828Z,390
2017-01-11T10:39:03.587Z,385
2017-01-11T10:40:14.292Z,385
2017-01-11T10:41:25.016Z,385
2017-01-11T10:42:35.733Z,385
2017-01-11T10:43:46.479Z,385
2017-01-11T10:44:57.175Z,375
2017-01-11T10:46:07.873Z,370
2017-01-11T10:47:18.596Z,360
2017-01-11T10:48:29.313Z,345
2017-01-11T10:49:40.039Z,315
2017-01-11T10:50:50.759Z,295
2017-01-11T10:52:01.519Z,290
2017-01-11T10:53:12.250Z,280
2017-01-11T10:54:22.971Z,270
2017-01-11T10:55:33.693Z,270
2017-01-11T10:56:44.440Z,280
2017-01-11T10:57:55.152Z,275
2017-01-11T10:59:05.877Z,275
2017-01-11T11:00:16.602Z,275
2017-01-11T11:01:27.311Z,270
2017-01-11T11:02:38.015Z,265
2017-01-11T11:03:48.731Z,260
2017-01-11T11:04:59.457Z,265
2017-01-11T11:06:10.185Z,255
2017-01-11T11:07:20.928Z,245
2017-01-11T11:08:31.629Z,235
2017-01-11T11:09:42.337Z,240
2017-01-11T11:10:53.084Z,270
2017-01-11T11:12:03.812Z,280
2017-01-11T11:13:14.507Z,260
2017-01-11T11:14:25.221Z,265
2017-01-11T11:15:35.922Z,285
2017-01-11T11:16:46.642Z,320
2017-01-11T11:17:57.368Z,330
2017-01-11T11:19:08.488Z,350
2017-01-11T11:20:19.239Z,385
2017-01-11T11:21:29.971Z,475
2017-01-11T11:22:40.693Z,500
2017-01-11T11:23:51.451Z,495
2017-01-11T11:25:02.167Z,465
2017-01-11T11:26:12.882Z,425
2017-01-11T11:27:23.614Z,415
2017-01-11T11:28:34.333Z,440
2017-01-11T11:29:45.070Z,420
2017-01-11T11:30:55.800Z,355
2017-01-11T11:32:06.524Z,305
2017-01-11T11:33:17.241Z,285
2017-01-11T11:34:27.979Z,270
2017-01-11T11:35:38.725Z,270
2017-01-11T11:36:49.454Z,270
2017-01-11T11:38:00.192Z,235
2017-01-11T11:39:10.917Z,210
2017-01-11T11:40:21.656Z,195
2017-01-11T11:41:32.763Z,175
2017-01-11T11:42:43.476Z,170
2017-01-11T11:43:54.178Z,175
2017-01-11T11:45:04.905Z,190
2017-01-11T11:46:15.623Z,205
2017-01-11T11:47:26.369Z,215
2017-01-11T11:48:37.113Z,235
2017-01-11T11:49:47.849Z,245
2017-01-11T11:50:58.553Z,230
2017-01-11T11:52:09.307Z,210
2017-01-11T11:53:20.020Z,200
2017-01-11T11:54:30.743Z,200
2017-01-11T11:55:41.455Z,190
2017-01-11T11:56:52.179Z,175
2017-01-11T11:58:02.896Z,165
2017-01-11T11:59:13.607Z,165
2017-01-11T12:00:24.346Z,170
2017-01-11T12:01:35.072Z,175
2017-01-11T12:02:45.789Z,200
2017-01-11T12:03:56.515Z,215
2017-01-11T12:05:07.251Z,230
2017-01-11T12:06:17.972Z,245
2017-01-11T12:07:28.697Z,245
2017-01-11T12:08:39.444Z,250
2017-01-11T12:09:50.143Z,260
2017-01-11T12:11:00.865Z,255
2017-01-11T12:12:12.350Z,230
2017-01-11T12:13:23.083Z,205
2017-01-11T12:14:33.827Z,180
2017-01-11T12:15:44.545Z,165
2017-01-11T12:16:55.243Z,165
2017-01-11T12:18:05.958Z,180
2017-01-11T12:19:16.683Z,190
2017-01-11T12:20:27.425Z,200
2017-01-11T12:21:38.125Z,230
2017-01-11T12:22:48.892Z,275
2017-01-11T12:23:59.592Z,310
2017-01-11T12:25:10.318Z,335
2017-01-11T12:26:21.063Z,335
2017-01-11T12:27:31.805Z,355
2017-01-11T12:28:42.507Z,375
2017-01-11T12:29:53.244Z,390
2017-01-11T12:31:04.343Z,385
2017-01-11T12:32:15.060Z,360
2017-01-11T12:33:25.786Z,315
2017-01-11T12:34:36.499Z,285
2017-01-11T12:35:47.224Z,250
2017-01-11T12:36:57.990Z,235
2017-01-11T12:38:08.712Z,215
2017-01-11T12:39:19.446Z,200
2017-01-11T12:40:30.166Z,195
2017-01-11T12:41:40.879Z,205
2017-01-11T12:42:51.597Z,215
2017-01-11T12:44:02.304Z,245
2017-01-11T12:45:13.042Z,285
2017-01-11T12:46:23.763Z,320
2017-01-11T12:47:34.484Z,360
2017-01-11T12:48:45.601Z,395
2017-01-11T12:49:56.310Z,395
2017-01-11T12:51:07.019Z,370
2017-01-11T12:52:18.144Z,325
2017-01-11T12:53:28.871Z,280
2017-01-11T12:54:39.592Z,270
2017-01-11T12:55:50.313Z,270
2017-01-11T12:57:01.053Z,275
2017-01-11T12:58:11.820Z,260
2017-01-11T12:59:22.541Z,220
2017-01-11T13:00:33.299Z,170
2017-01-11T13:01:44.019Z,120
2017-01-11T13:02:54.736Z,100
2017-01-11T13:04:05.479Z,85
2017-01-11T13:05:16.207Z,65
2017-01-11T13:06:26.945Z,60
2017-01-11T13:07:37.671Z,65
2017-01-11T13:08:48.409Z,80
2017-01-11T13:09:59.143Z,95
2017-01-11T13:11:09.852Z,105
2017-01-11T13:12:20.600Z,100
2017-01-11T13:13:31.330Z,90
2017-01-11T13:14:42.067Z,105
2017-01-11T13:15:52.788Z,115
2017-01-11T13:17:03.513Z,135
2017-01-11T13:18:14.235Z,140
2017-01-11T13:19:24.974Z,160
2017-01-11T13:20:35.703Z,165
2017-01-11T13:21:46.428Z,130
2017-01-11T13:22:57.150Z,100
2017-01-11T13:24:07.885Z,85
2017-01-11T13:25:18.616Z,95
2017-01-11T13:26:29.332Z,70
2017-01-11T13:27:40.046Z,60
2017-01-11T13:28:50.777Z,50
2017-01-11T13:30:01.490Z,35
2017-01-11T13:31:12.217Z,35
2017-01-11T13:32:22.937Z,30
2017-01-11T13:33:33.659Z,25
2017-01-11T13:34:44.382Z,25
2017-01-11T13:35:55.154Z,30
2017-01-11T13:37:05.847Z,25
2017-01-11T13:38:16.572Z,25
2017-01-11T13:39:27.283Z,20
2017-01-11T13:40:37.983Z,20
2017-01-11T13:41:48.683Z,15
2017-01-11T13:42:59.417Z,10
2017-01-11T13:44:10.164Z,10
2017-01-11T13:45:20.909Z,10
2017-01-11T13:46:31.643Z,10
2017-01-11T13:47:42.384Z,15
2017-01-11T13:48:53.109Z,15
2017-01-11T13:50:03.876Z,10
2017-01-11T13:51:14.597Z,10
2017-01-11T13:52:25.323Z,10
2017-01-11T13:53:36.018Z,10
2017-01-11T13:54:46.736Z,10
2017-01-11T13:55:57.459Z,10
2017-01-11T13:57:08.178Z,10
2017-01-11T13:58:18.916Z,10
2017-01-11T13:59:29.645Z,10
2017-01-11T14:00:40.371Z,10
2017-01-11T14:01:51.107Z,10
2017-01-11T14:03:01.815Z,5
2017-01-11T14:04:12.553Z,5
2017-01-11T14:05:23.277Z,10
2017-01-11T14:06:33.995Z,10
2017-01-11T14:07:44.734Z,10
2017-01-11T14:08:55.462Z,10
2017-01-11T14:10:06.178Z,10
2017-01-11T14:11:16.904Z,10
2017-01-11T14:12:27.642Z,10
2017-01-11T14:13:38.371Z,10
2017-01-11T14:14:49.097Z,10
2017-01-11T14:15:59.805Z,5
2017-01-11T14:17:10.515Z,5
2017-01-11T14:18:21.258Z,5
2017-01-11T14:19:31.958Z,10
2017-01-11T14:20:42.693Z,5
2017-01-11T14:21:53.416Z,5
2017-01-11T14:23:04.143Z,5
2017-01-11T14:24:14.881Z,5
2017-01-11T14:25:25.611Z,5
2017-01-11T14:26:36.306Z,5
2017-01-11T14:27:47.040Z,5
2017-01-11T14:28:57.790Z,5
2017-01-11T14:30:08.536Z,5
2017-01-11T14:31:19.282Z,5
2017-01-11T14:32:30.026Z,5
2017-01-11T14:33:40.771Z,5
2017-01-11T14:34:51.502Z,5
2017-01-11T14:36:02.220Z,10
2017-01-11T14:37:12.949Z,5
2017-01-11T14:38:24.083Z,5
2017-01-11T14:39:34.829Z,5
2017-01-11T14:40:45.583Z,5
2017-01-11T14:41:56.306Z,5
2017-01-11T14:43:07.002Z,5
2017-01-11T14:44:17.720Z,5
2017-01-11T14:45:28.416Z,5
2017-01-11T14:46:39.135Z,0
2017-01-11T14:47:49.873Z,5
2017-01-11T14:49:01.020Z,5
2017-01-11T14:50:12.125Z,0
2017-01-11T14:51:22.839Z,0
2017-01-11T14:52:33.560Z,0
2017-01-11T14:53:44.302Z,0
2017-01-11T14:54:55.033Z,0
2017-01-11T14:56:06.158Z,0
2017-01-11T14:57:16.902Z,0
2017-01-11T14:58:27.625Z,0
2017-01-11T14:59:38.367Z,0
2017-01-11T15:00:49.089Z,0
2017-01-11T15:01:59.838Z,0
2017-01-11T15:03:10.574Z,0
2017-01-11T15:04:21.299Z,0
2017-01-11T15:05:32.027Z,0
2017-01-11T15:06:42.745Z,0
2017-01-11T15:07:53.868Z,0
2017-01-11T15:09:04.591Z,0
2017-01-11T15:10:15.333Z,0
2017-01-11T15:11:26.067Z,0
2017-01-11T15:12:36.806Z,0
2017-01-11T15:13:47.498Z,0
2017-01-11T15:14:58.215Z,0
2017-01-11T15:16:08.958Z,0
2017-01-11T15:17:19.675Z,0
2017-01-11T15:18:30.397Z,0
2017-01-11T15:19:41.139Z,0
2017-01-11T15:20:51.873Z,0
2017-01-11T15:22:02.610Z,0
2017-01-11T15:23:13.762Z,0
2017-01-11T15:24:24.489Z,0
2017-01-11T15:25:35.230Z,0
2017-01-11T15:26:45.977Z,0
2017-01-11T15:27:57.099Z,0
2017-01-11T15:29:07.843Z,0
2017-01-11T15:30:18.631Z,0
2017-01-11T15:31:29.361Z,0
2017-01-11T15:32:40.082Z,0
2017-01-11T15:33:50.819Z,0
2017-01-11T15:35:01.566Z,0
2017-01-11T15:36:12.294Z,0
2017-01-11T15:37:23.029Z,0
2017-01-11T15:38:33.762Z,0
2017-01-11T15:39:44.461Z,0
2017-01-11T15:40:55.577Z,0
2017-01-11T15:42:06.295Z,0
2017-01-11T15:43:17.020Z,0
2017-01-11T15:44:27.766Z,0
2017-01-11T15:45:38.486Z,0
2017-01-11T15:46:49.214Z,0
2017-01-11T15:47:59.921Z,0
2017-01-11T15:49:10.650Z,0
2017-01-11T15:50:21.385Z,0
2017-01-11T15:51:32.116Z,0
2017-01-11T15:52:42.819Z,0
2017-01-11T15:53:53.560Z,0
2017-01-11T15:55:04.297Z,0
2017-01-11T15:56:15.047Z,0
2017-01-11T15:57:25.749Z,0
2017-01-11T15:58:36.440Z,0
2017-01-11T15:59:47.188Z,0
2017-01-11T16:00:57.928Z,0
2017-01-11T16:02:08.644Z,0
2017-01-11T16:03:19.379Z,0
2017-01-11T16:04:30.097Z,0
2017-01-11T16:05:40.815Z,0
2017-01-11T16:06:51.534Z,0
2017-01-11T16:08:02.277Z,0
2017-01-11T16:09:12.979Z,0
2017-01-11T16:10:23.704Z,0
2017-01-11T16:11:34.397Z,0
2017-01-11T16:12:45.120Z,0
2017-01-11T16:13:55.827Z,0
2017-01-11T16:15:06.531Z,0
2017-01-11T16:16:17.255Z,0
2017-01-11T16:17:27.972Z,0
2017-01-11T16:18:38.675Z,0
2017-01-11T16:19:49.410Z,0
2017-01-11T16:21:00.127Z,0
2017-01-11T16:22:10.848Z,0
2017-01-11T16:23:21.598Z,0
2017-01-11T16:24:32.302Z,0
2017-01-11T16:25:42.999Z,0
2017-01-11T16:26:53.718Z,0
2017-01-11T16:28:04.811Z,0
2017-01-11T16:29:15.549Z,0
2017-01-11T16:30:26.294Z,0
2017-01-11T16:31:37.004Z,0
2017-01-11T16:32:47.720Z,0
2017-01-11T16:33:58.465Z,0
2017-01-11T16:35:09.194Z,0
2017-01-11T16:36:19.914Z,0
2017-01-11T16:37:30.633Z,0
2017-01-11T16:38:41.355Z,0
2017-01-11T16:39:52.069Z,0
2017-01-11T16:41:02.768Z,0
2017-01-11T16:42:13.478Z,0
2017-01-11T16:43:24.203Z,0
2017-01-11T16:44:34.973Z,0
2017-01-11T16:45:45.695Z,0
2017-01-11T16:46:56.420Z,0
2017-01-11T16:48:07.162Z,0
2017-01-11T16:49:17.909Z,0
2017-01-11T16:50:28.653Z,0
2017-01-11T16:51:39.397Z,0
2017-01-11T16:52:50.102Z,0
2017-01-11T16:54:00.842Z,0
2017-01-11T16:55:11.946Z,0
2017-01-11T16:56:22.680Z,0
2017-01-11T16:57:33.408Z,0
2017-01-11T16:58:44.132Z,0
2017-01-11T16:59:54.856Z,0